Uvalde Research's Hourly Summary for Friday, April 14, 2017
Hour Temp
(f)
RH
(%)
Solar Rad.
(MJ/m2)
Rainfall
(in)
Wind
(mph)
4/14/2017 12:00 AM 0 0 0 0 0
4/14/2017 1:00 AM 68 89 0 0 3.63
4/14/2017 2:00 AM 67 92 0 0 3.29
4/14/2017 3:00 AM 66 92 0 0 3.3
4/14/2017 4:00 AM 66 93 0 0 3.15
4/14/2017 5:00 AM 66 94 0 0 2.38
4/14/2017 6:00 AM 65 95 0 0 2.47
4/14/2017 7:00 AM 65 95 0.03 0 2.77
4/14/2017 8:00 AM 66 94 0.22 0 3.42
4/14/2017 9:00 AM 66 93 0.36 0 3.18
4/14/2017 10:00 AM 69 88 1.37 0 3.91
4/14/2017 11:00 AM 71 80 1.77 0 3.86
4/14/2017 12:00 PM 74 74 2.16 0 3.68
4/14/2017 1:00 PM 76 67 2.27 0 3.92
4/14/2017 2:00 PM 78 59 2.49 0 4.1
4/14/2017 3:00 PM 79 56 1.46 0 3.45
4/14/2017 4:00 PM 79 56 1.32 0 3.88
4/14/2017 5:00 PM 79 56 0.96 0 4.04
4/14/2017 6:00 PM 78 60 0.55 0 3.3
4/14/2017 7:00 PM 76 65 0.12 0 2.21
4/14/2017 8:00 PM 74 69 0 0 2.23
4/14/2017 9:00 PM 73 71 0 0 3.46
4/14/2017 10:00 PM 72 77 0 0 4.37
4/14/2017 11:00 PM 71 82 0 0 4.17
Data Summary 68 74 15.08 0.00 3.26